Time;durP1;ratioP1;P1;durP2;ratioP2;P2;SDS_P1;SDS_P2;PMS_P1;PMS_P2;Temp;Humidity;BMP_temperature;BMP_pressure;BME280_temperature;BME280_humidity;BME280_pressure;Samples;Min_cycle;Max_cycle;Signal;HPM_P1;HPM_P2
2023/04/11 00:01:50;;;;;;;3.08;0.75;;;9.90;99.90;;;;;;5026181;28;20080;-77
2023/04/11 00:04:16;;;;;;;1.10;0.70;;;10.00;99.90;;;;;;5022800;28;20517;-78
2023/04/11 00:06:41;;;;;;;1.67;0.60;;;9.90;99.90;;;;;;5024428;28;20097;-77
2023/04/11 00:09:09;;;;;;;2.20;0.43;;;9.90;99.90;;;;;;5020119;28;20059;-77
2023/04/11 00:11:35;;;;;;;3.60;0.70;;;9.90;99.90;;;;;;5023499;28;20041;-78
2023/04/11 00:14:00;;;;;;;3.88;0.70;;;9.90;99.90;;;;;;5023727;28;20034;-78
2023/04/11 00:16:26;;;;;;;1.48;0.40;;;9.90;99.90;;;;;;5036338;28;20045;-78
2023/04/11 00:18:52;;;;;;;3.88;1.10;;;9.90;99.90;;;;;;5037245;28;20033;-78
2023/04/11 00:21:17;;;;;;;4.82;1.13;;;9.90;99.90;;;;;;5007845;28;20057;-78
2023/04/11 00:23:43;;;;;;;3.75;0.80;;;9.90;99.90;;;;;;5020320;28;20084;-78
2023/04/11 00:26:08;;;;;;;2.03;0.75;;;9.90;99.90;;;;;;5036743;28;20052;-78
2023/04/11 00:28:34;;;;;;;4.55;0.80;;;9.90;99.90;;;;;;5020399;28;20033;-78
2023/04/11 00:31:00;;;;;;;3.13;0.70;;;9.90;99.90;;;;;;5016774;28;20037;-78
2023/04/11 00:33:26;;;;;;;6.70;0.80;;;9.90;99.90;;;;;;5021146;28;20030;-77
2023/04/11 00:35:52;;;;;;;2.30;0.40;;;10.10;99.90;;;;;;4998588;28;20026;-78
2023/04/11 00:38:17;;;;;;;3.65;0.95;;;9.90;99.90;;;;;;5003918;28;20041;-78
2023/04/11 00:40:43;;;;;;;2.45;0.90;;;9.90;99.90;;;;;;5026310;28;20181;-78
2023/04/11 00:43:08;;;;;;;1.27;0.60;;;9.90;99.90;;;;;;5005627;28;20047;-78
2023/04/11 00:45:34;;;;;;;1.33;0.65;;;10.00;99.90;;;;;;5001912;28;20049;-78
2023/04/11 00:48:00;;;;;;;3.70;0.50;;;10.00;99.90;;;;;;5024346;28;20410;-78
2023/04/11 00:50:26;;;;;;;4.00;0.70;;;9.80;99.90;;;;;;5020711;28;20065;-78
2023/04/11 00:52:51;;;;;;;4.15;0.50;;;9.70;99.90;;;;;;5002665;28;20391;-78
2023/04/11 00:55:17;;;;;;;5.13;1.17;;;10.00;99.90;;;;;;5001241;28;20091;-78
2023/04/11 00:57:43;;;;;;;2.70;0.43;;;9.90;99.90;;;;;;5034435;28;20099;-78
2023/04/11 01:00:09;;;;;;;4.35;1.10;;;9.80;99.90;;;;;;5001243;28;20113;-78
2023/04/11 01:02:36;;;;;;;7.55;0.70;;;9.90;99.90;;;;;;5001460;28;20042;-78
2023/04/11 01:05:06;;;;;;;1.08;0.30;;;9.90;99.90;;;;;;5008598;28;20045;-78
2023/04/11 01:07:33;;;;;;;9.93;1.13;;;9.80;99.90;;;;;;5003447;28;20037;-78
2023/04/11 01:09:59;;;;;;;4.55;0.70;;;9.90;99.90;;;;;;5026471;28;20071;-78
2023/04/11 01:12:25;;;;;;;5.07;0.85;;;9.90;99.90;;;;;;5011574;28;20080;-78
2023/04/11 01:14:51;;;;;;;4.40;1.10;;;9.90;99.90;;;;;;5009201;28;20034;-77
2023/04/11 01:17:16;;;;;;;4.70;0.98;;;9.90;99.90;;;;;;5037797;28;20040;-78
2023/04/11 01:19:42;;;;;;;4.13;1.45;;;9.90;99.90;;;;;;5008428;28;20034;-78
2023/04/11 01:22:07;;;;;;;5.70;0.93;;;9.90;99.90;;;;;;5008451;28;20029;-78
2023/04/11 01:24:33;;;;;;;3.42;0.77;;;9.80;99.90;;;;;;4999683;28;20068;-77
2023/04/11 01:27:00;;;;;;;4.00;0.65;;;9.80;99.90;;;;;;5010983;28;20037;-78
2023/04/11 01:29:26;;;;;;;5.82;0.95;;;10.00;99.90;;;;;;5009675;28;20066;-78
2023/04/11 01:31:51;;;;;;;5.47;1.80;;;9.90;99.90;;;;;;5036769;28;20118;-78
2023/04/11 01:34:17;;;;;;;3.95;0.52;;;9.80;99.90;;;;;;5034388;28;20029;-78
2023/04/11 01:36:43;;;;;;;2.03;0.98;;;9.80;99.90;;;;;;5022859;28;20046;-78
2023/04/11 01:39:08;;;;;;;6.60;1.65;;;9.70;99.90;;;;;;5023251;28;20041;-78
2023/04/11 01:41:34;;;;;;;2.58;0.80;;;9.70;99.90;;;;;;5016465;28;20034;-79
2023/04/11 01:44:01;;;;;;;4.80;0.90;;;9.70;99.90;;;;;;4994478;28;20099;-78
2023/04/11 01:46:27;;;;;;;7.85;1.30;;;9.70;99.90;;;;;;5036134;28;20784;-78
2023/04/11 01:48:54;;;;;;;10.40;1.23;;;9.70;99.90;;;;;;5004603;28;20030;-78
2023/04/11 01:51:19;;;;;;;6.32;1.30;;;9.70;99.90;;;;;;5020798;28;20037;-78
2023/04/11 01:53:46;;;;;;;11.95;1.40;;;9.60;99.90;;;;;;5020187;28;20393;-78
2023/04/11 01:56:12;;;;;;;7.28;1.73;;;9.50;99.90;;;;;;5038729;28;20590;-78
2023/04/11 01:58:37;;;;;;;8.68;1.50;;;9.60;99.90;;;;;;5006394;28;20557;-79
2023/04/11 02:01:04;;;;;;;3.38;1.33;;;9.60;99.90;;;;;;5010305;28;20021;-78
2023/04/11 02:03:30;;;;;;;8.27;1.83;;;9.70;99.90;;;;;;5016646;28;20498;-78
2023/04/11 02:05:55;;;;;;;10.77;2.50;;;9.70;99.90;;;;;;5010305;28;20038;-78
2023/04/11 02:08:21;;;;;;;6.00;1.92;;;9.60;99.90;;;;;;5020134;28;20426;-78
2023/04/11 02:10:46;;;;;;;10.10;1.98;;;9.60;99.90;;;;;;5004425;28;20481;-79
2023/04/11 02:13:12;;;;;;;5.57;1.85;;;9.60;99.90;;;;;;5021980;28;20038;-79
2023/04/11 02:15:37;;;;;;;4.78;1.63;;;9.50;99.90;;;;;;5028253;28;20025;-78
2023/04/11 02:18:03;;;;;;;10.13;1.77;;;9.50;99.90;;;;;;5009383;28;20065;-78
2023/04/11 02:20:29;;;;;;;13.73;3.47;;;9.60;99.90;;;;;;5037469;28;20035;-78
2023/04/11 02:22:54;;;;;;;7.28;2.10;;;9.50;99.90;;;;;;5008544;28;20075;-78
2023/04/11 02:25:20;;;;;;;12.57;2.08;;;9.50;99.90;;;;;;5023950;28;20053;-77
2023/04/11 02:27:45;;;;;;;6.95;2.03;;;9.50;99.90;;;;;;5024729;28;20108;-77
2023/04/11 02:30:11;;;;;;;8.68;2.15;;;9.50;99.90;;;;;;5026290;28;20117;-77
2023/04/11 02:32:37;;;;;;;6.95;1.40;;;9.50;99.90;;;;;;5022679;28;20477;-78
2023/04/11 02:35:03;;;;;;;18.17;3.05;;;9.50;99.90;;;;;;5028696;28;20476;-77
2023/04/11 02:37:30;;;;;;;8.05;2.22;;;9.50;99.90;;;;;;5019040;28;20034;-77
2023/04/11 02:39:57;;;;;;;13.70;2.80;;;9.40;99.90;;;;;;5009739;28;20068;-77
2023/04/11 02:42:22;;;;;;;14.35;3.00;;;9.40;99.90;;;;;;5004549;28;20038;-77
2023/04/11 02:44:48;;;;;;;8.05;1.75;;;9.40;99.90;;;;;;5015999;28;20034;-78
2023/04/11 02:47:13;;;;;;;13.35;2.05;;;9.40;99.90;;;;;;5025587;28;20030;-80
2023/04/11 02:49:41;;;;;;;5.57;1.77;;;9.30;99.90;;;;;;5022514;28;20026;-80
2023/04/11 02:52:06;;;;;;;14.13;1.98;;;9.40;99.90;;;;;;5012359;28;20454;-81
2023/04/11 02:54:32;;;;;;;2.88;0.95;;;9.30;99.90;;;;;;5022669;28;20105;-80
2023/04/11 02:56:57;;;;;;;12.40;2.90;;;9.30;99.90;;;;;;5026926;28;20482;-80
2023/04/11 02:59:23;;;;;;;10.27;2.55;;;9.20;99.90;;;;;;5006097;28;20514;-80
2023/04/11 03:01:49;;;;;;;13.43;2.75;;;9.30;99.90;;;;;;5025963;28;20044;-80
2023/04/11 03:04:14;;;;;;;11.95;2.00;;;9.40;99.90;;;;;;5009339;28;20030;-80
2023/04/11 03:06:40;;;;;;;9.43;2.00;;;9.20;99.90;;;;;;5010739;28;20171;-79
2023/04/11 03:09:05;;;;;;;11.85;2.90;;;9.20;99.90;;;;;;5009925;28;20045;-79
2023/04/11 03:11:31;;;;;;;7.57;1.48;;;9.10;99.90;;;;;;5013875;28;20056;-79
2023/04/11 03:13:56;;;;;;;8.93;2.47;;;9.10;99.90;;;;;;5024440;28;20044;-79
2023/04/11 03:16:22;;;;;;;9.43;1.95;;;8.50;99.90;;;;;;5031088;28;20038;-79
2023/04/11 03:18:48;;;;;;;10.45;3.30;;;9.20;99.90;;;;;;5028172;28;20041;-80
2023/04/11 03:21:13;;;;;;;13.10;1.85;;;9.20;99.90;;;;;;5024220;28;20034;-80
2023/04/11 03:23:39;;;;;;;9.02;1.75;;;9.20;99.90;;;;;;5010498;28;20037;-80
2023/04/11 03:26:05;;;;;;;11.30;2.50;;;9.20;99.90;;;;;;5028679;28;20107;-80
2023/04/11 03:28:30;;;;;;;8.23;2.30;;;9.30;99.90;;;;;;5039094;28;20498;-80
2023/04/11 03:30:56;;;;;;;15.15;2.50;;;9.20;99.90;;;;;;5009917;28;20090;-80
2023/04/11 03:33:22;;;;;;;10.77;2.13;;;9.20;99.90;;;;;;5010391;28;20038;-80
2023/04/11 03:35:47;;;;;;;16.58;2.72;;;9.20;99.90;;;;;;5031157;28;20042;-80
2023/04/11 03:38:13;;;;;;;12.77;2.55;;;9.20;99.90;;;;;;5028842;28;20025;-79
2023/04/11 03:40:38;;;;;;;11.60;2.85;;;9.10;99.90;;;;;;5044292;28;20480;-80
2023/04/11 03:43:04;;;;;;;15.10;3.80;;;9.20;99.90;;;;;;5011101;28;20033;-80
2023/04/11 03:45:30;;;;;;;6.60;1.40;;;9.10;99.90;;;;;;5042056;28;20069;-80
2023/04/11 03:47:55;;;;;;;7.70;2.30;;;9.20;99.90;;;;;;5007273;28;20026;-81
2023/04/11 03:50:21;;;;;;;12.15;2.25;;;9.10;99.90;;;;;;5027303;28;20045;-80
2023/04/11 03:52:46;;;;;;;6.28;1.98;;;9.20;99.90;;;;;;5016666;28;20029;-81
2023/04/11 03:55:12;;;;;;;18.23;3.22;;;9.10;99.90;;;;;;5020108;28;20056;-80
2023/04/11 03:57:37;;;;;;;19.70;3.45;;;9.10;99.90;;;;;;5022491;28;20037;-80
2023/04/11 04:00:06;;;;;;;14.70;2.50;;;9.10;99.90;;;;;;5013538;28;20025;-81
2023/04/11 04:02:32;;;;;;;13.68;3.72;;;9.10;99.90;;;;;;5041182;28;20480;-81
2023/04/11 04:04:58;;;;;;;10.90;1.95;;;9.10;99.90;;;;;;5004755;28;20036;-80
2023/04/11 04:07:27;;;;;;;14.43;3.10;;;9.20;99.90;;;;;;5009760;28;20037;-81
2023/04/11 04:09:52;;;;;;;12.98;2.28;;;9.20;99.90;;;;;;5023087;28;20610;-80
2023/04/11 04:12:19;;;;;;;8.20;1.02;;;9.20;99.90;;;;;;5024191;28;20030;-81
2023/04/11 04:14:45;;;;;;;9.80;2.03;;;9.20;99.90;;;;;;5023346;28;20449;-79
2023/04/11 04:17:12;;;;;;;8.57;2.17;;;9.10;99.90;;;;;;5021054;28;20029;-80
2023/04/11 04:19:37;;;;;;;6.82;1.90;;;9.10;99.90;;;;;;5028097;28;20505;-80
2023/04/11 04:22:03;;;;;;;9.10;3.03;;;9.10;99.90;;;;;;5014304;28;20034;-80
2023/04/11 04:24:30;;;;;;;4.07;1.50;;;9.10;99.90;;;;;;5004358;28;20030;-80
2023/04/11 04:26:59;;;;;;;21.45;4.60;;;9.10;99.90;;;;;;5026493;28;21534;-80
2023/04/11 04:29:32;;;;;;;9.48;2.08;;;9.10;99.90;;;;;;5010502;28;20485;-81
2023/04/11 04:32:00;;;;;;;18.67;3.55;;;9.10;99.90;;;;;;5028471;28;20814;-80
2023/04/11 04:34:27;;;;;;;7.75;1.88;;;9.10;99.90;;;;;;5010234;28;20037;-81
2023/04/11 04:36:58;;;;;;;7.35;1.83;;;9.10;99.90;;;;;;5019121;28;20501;-80
2023/04/11 04:39:24;;;;;;;18.08;3.17;;;9.00;99.90;;;;;;5013912;28;20080;-80
2023/04/11 04:41:56;;;;;;;19.23;4.88;;;9.00;99.90;;;;;;5013551;28;20034;-80
2023/04/11 04:44:23;;;;;;;16.20;3.70;;;9.10;99.90;;;;;;5009393;28;20038;-80
2023/04/11 04:46:53;;;;;;;14.55;3.08;;;9.00;99.90;;;;;;5039064;28;20053;-79
2023/04/11 04:49:18;;;;;;;16.50;3.22;;;9.00;99.90;;;;;;5027801;28;20037;-80
2023/04/11 04:51:44;;;;;;;4.38;1.45;;;8.90;99.90;;;;;;5016023;28;20471;-80
2023/04/11 04:54:10;;;;;;;12.23;3.22;;;9.00;99.90;;;;;;5008411;28;20199;-80
2023/04/11 04:56:35;;;;;;;11.52;2.88;;;9.00;99.90;;;;;;5020882;28;20032;-80
2023/04/11 04:59:01;;;;;;;11.38;3.33;;;9.10;99.90;;;;;;5018613;28;20034;-81
2023/04/11 05:01:26;;;;;;;19.60;4.13;;;9.00;99.90;;;;;;5011930;28;20093;-79
2023/04/11 05:03:58;;;;;;;11.85;3.25;;;9.00;99.90;;;;;;5026551;28;20482;-81
2023/04/11 05:06:30;;;;;;;13.40;3.58;;;8.90;99.90;;;;;;5007613;28;20076;-80
2023/04/11 05:08:57;;;;;;;13.90;4.30;;;8.90;99.90;;;;;;5023019;28;20041;-80
2023/04/11 05:11:23;;;;;;;12.05;4.45;;;8.80;99.90;;;;;;5004981;28;20065;-80
2023/04/11 05:13:49;;;;;;;7.50;2.95;;;8.70;99.90;;;;;;5010322;28;20034;-80
2023/04/11 05:16:16;;;;;;;16.05;2.65;;;8.70;99.90;;;;;;5019441;28;20037;-80
2023/04/11 05:18:41;;;;;;;23.02;4.47;;;8.70;99.90;;;;;;5018771;28;20538;-80
2023/04/11 05:21:07;;;;;;;14.77;3.70;;;8.70;99.90;;;;;;5007516;28;20044;-80
2023/04/11 05:23:33;;;;;;;4.80;2.17;;;8.70;99.90;;;;;;5005611;28;20034;-80
2023/04/11 05:26:00;;;;;;;10.40;3.40;;;8.70;99.90;;;;;;5034060;28;20034;-80
2023/04/11 05:28:25;;;;;;;14.63;2.85;;;8.60;99.90;;;;;;5003963;28;20049;-79
2023/04/11 05:30:51;;;;;;;9.07;2.45;;;8.60;99.90;;;;;;5021146;28;20033;-79
2023/04/11 05:33:16;;;;;;;9.30;3.00;;;8.60;99.90;;;;;;5019556;28;20120;-80
2023/04/11 05:35:42;;;;;;;17.75;3.53;;;8.60;99.90;;;;;;5027027;28;20501;-80
2023/04/11 05:38:08;;;;;;;17.85;3.13;;;8.60;99.90;;;;;;5021398;28;20026;-80
2023/04/11 05:40:35;;;;;;;16.45;3.00;;;8.70;99.90;;;;;;5031517;28;20041;-81
2023/04/11 05:43:01;;;;;;;12.07;3.55;;;8.70;99.90;;;;;;5024684;28;20065;-81
2023/04/11 05:45:26;;;;;;;7.90;2.30;;;8.70;99.90;;;;;;5006240;28;20056;-79
2023/04/11 05:47:52;;;;;;;21.40;2.47;;;8.70;99.90;;;;;;5021482;28;20042;-80
2023/04/11 05:50:17;;;;;;;17.55;3.97;;;8.70;99.90;;;;;;5017750;28;20030;-79
2023/04/11 05:52:43;;;;;;;9.30;2.40;;;8.70;99.90;;;;;;5016508;28;20038;-80
2023/04/11 05:55:09;;;;;;;13.80;2.95;;;8.80;99.90;;;;;;5010159;28;20022;-79
2023/04/11 05:57:35;;;;;;;5.35;2.03;;;8.80;99.90;;;;;;5011701;28;20025;-79
2023/04/11 06:00:01;;;;;;;12.07;3.58;;;9.00;99.90;;;;;;5027392;28;20017;-79
2023/04/11 06:02:27;;;;;;;10.60;3.05;;;9.10;99.90;;;;;;5025986;28;20281;-79
2023/04/11 06:04:53;;;;;;;19.52;3.33;;;9.00;99.90;;;;;;5020525;28;20069;-80
2023/04/11 06:07:20;;;;;;;12.32;2.83;;;9.00;99.90;;;;;;5002034;28;20109;-79
2023/04/11 06:09:45;;;;;;;15.18;4.03;;;9.00;99.90;;;;;;5007883;28;20058;-80
2023/04/11 06:12:11;;;;;;;12.18;3.50;;;8.90;99.90;;;;;;5033981;28;20111;-80
2023/04/11 06:14:37;;;;;;;23.63;4.93;;;8.80;99.90;;;;;;4999997;28;20581;-80
2023/04/11 06:17:03;;;;;;;7.35;3.13;;;8.80;99.90;;;;;;4994736;28;20036;-80
2023/04/11 06:19:28;;;;;;;17.88;4.38;;;8.70;99.90;;;;;;5003745;28;20034;-79
2023/04/11 06:21:54;;;;;;;9.02;2.67;;;8.70;99.90;;;;;;5004986;28;20036;-79
2023/04/11 06:24:44;;;;;;;10.82;3.10;;;8.80;99.90;;;;;;5022490;28;20095;-80
2023/04/11 06:27:09;;;;;;;12.20;2.35;;;8.80;99.90;;;;;;5031688;28;20715;-80
2023/04/11 06:29:38;;;;;;;11.48;3.05;;;8.80;99.90;;;;;;5007026;28;20045;-80
2023/04/11 06:32:04;;;;;;;16.50;4.05;;;8.90;99.90;;;;;;5024563;28;20102;-81
2023/04/11 06:34:30;;;;;;;15.00;3.30;;;8.90;99.90;;;;;;5008478;28;20056;-80
2023/04/11 06:36:56;;;;;;;26.65;4.53;;;9.00;99.90;;;;;;5002444;28;20037;-80
2023/04/11 06:39:21;;;;;;;6.38;2.45;;;9.00;99.90;;;;;;5025080;28;20568;-80
2023/04/11 06:41:47;;;;;;;9.90;3.20;;;9.10;99.90;;;;;;5007934;28;20038;-80
2023/04/11 06:44:13;;;;;;;11.38;3.38;;;9.10;99.90;;;;;;5024526;28;20117;-79
2023/04/11 06:46:38;;;;;;;10.15;3.35;;;9.10;99.90;;;;;;5005797;28;20038;-80
2023/04/11 06:49:06;;;;;;;7.22;2.28;;;9.20;99.90;;;;;;5016484;28;20037;-80
2023/04/11 06:51:34;;;;;;;11.52;2.38;;;9.30;99.90;;;;;;5024250;28;20037;-81
2023/04/11 06:54:00;;;;;;;13.38;3.00;;;9.30;99.90;;;;;;5034929;28;20034;-81
2023/04/11 06:56:26;;;;;;;5.75;2.30;;;9.40;99.90;;;;;;5019099;28;20065;-81
2023/04/11 06:58:52;;;;;;;11.15;3.15;;;9.50;99.90;;;;;;5001873;28;20026;-81
2023/04/11 07:01:19;;;;;;;7.30;2.78;;;9.80;99.90;;;;;;5016619;28;21110;-81
2023/04/11 07:03:46;;;;;;;7.25;2.10;;;9.70;99.90;;;;;;5038307;28;20045;-79
2023/04/11 07:06:11;;;;;;;17.88;3.63;;;9.70;99.90;;;;;;5005124;28;20042;-81
2023/04/11 07:08:37;;;;;;;11.70;2.22;;;9.80;99.90;;;;;;5007397;28;20095;-80
2023/04/11 07:11:03;;;;;;;6.68;2.28;;;9.90;99.90;;;;;;5007100;28;20537;-80
2023/04/11 07:13:28;;;;;;;13.68;2.88;;;10.00;99.90;;;;;;4997469;28;20034;-80
2023/04/11 07:15:54;;;;;;;14.70;2.22;;;10.10;99.90;;;;;;5020506;28;20034;-81
2023/04/11 07:18:20;;;;;;;12.45;2.30;;;10.20;99.90;;;;;;5000809;28;20026;-79
2023/04/11 07:20:47;;;;;;;6.90;2.00;;;10.20;99.90;;;;;;5015245;28;20036;-81
2023/04/11 07:23:13;;;;;;;9.98;1.92;;;10.30;99.90;;;;;;5018049;28;20041;-80
2023/04/11 07:25:38;;;;;;;13.52;2.22;;;10.40;99.90;;;;;;5015415;28;20038;-81
2023/04/11 07:28:06;;;;;;;7.38;1.52;;;10.50;99.90;;;;;;5009301;28;20029;-80
2023/04/11 07:30:32;;;;;;;6.75;1.27;;;10.60;99.90;;;;;;5003503;28;20037;-80
2023/04/11 07:32:57;;;;;;;10.57;2.35;;;10.50;99.90;;;;;;5005577;28;20029;-80
2023/04/11 07:35:23;;;;;;;16.50;3.33;;;10.60;99.90;;;;;;4999555;28;20204;-80
2023/04/11 07:37:48;;;;;;;5.13;1.42;;;10.70;99.90;;;;;;5008115;28;20500;-80
2023/04/11 07:40:14;;;;;;;14.77;3.30;;;10.80;99.90;;;;;;5022406;28;20141;-80
2023/04/11 07:42:40;;;;;;;7.18;1.55;;;10.90;99.90;;;;;;5019410;28;20571;-81
2023/04/11 07:45:06;;;;;;;9.27;2.72;;;10.90;99.90;;;;;;5007365;28;20071;-78
2023/04/11 07:47:32;;;;;;;7.50;2.35;;;10.90;99.90;;;;;;5001306;28;20494;-79
2023/04/11 07:49:57;;;;;;;11.45;2.40;;;10.90;99.90;;;;;;5014341;28;20021;-78
2023/04/11 07:52:24;;;;;;;16.42;2.60;;;10.90;99.90;;;;;;5007523;28;20525;-80
2023/04/11 07:54:50;;;;;;;5.95;1.67;;;11.10;99.90;;;;;;5001437;28;20355;-80
2023/04/11 07:57:15;;;;;;;17.02;3.70;;;11.10;99.90;;;;;;5031805;28;20064;-80
2023/04/11 07:59:42;;;;;;;13.60;2.67;;;11.30;99.90;;;;;;4999663;28;20845;-80
2023/04/11 08:02:07;;;;;;;9.07;2.05;;;11.40;99.90;;;;;;5000289;28;20080;-80
2023/04/11 08:04:34;;;;;;;13.18;2.67;;;11.40;99.90;;;;;;5016187;28;20509;-80
2023/04/11 08:07:00;;;;;;;10.32;2.33;;;11.60;99.90;;;;;;5006545;28;20038;-80
2023/04/11 08:09:26;;;;;;;6.28;1.95;;;11.70;99.90;;;;;;5013395;28;20030;-81
2023/04/11 08:11:52;;;;;;;7.32;1.45;;;11.80;99.90;;;;;;5017727;28;20049;-80
2023/04/11 08:14:18;;;;;;;6.85;2.30;;;11.60;99.90;;;;;;5020213;28;20038;-80
2023/04/11 08:16:43;;;;;;;12.15;2.33;;;11.60;99.90;;;;;;5015934;28;20064;-80
2023/04/11 08:19:10;;;;;;;9.00;2.45;;;11.70;99.90;;;;;;5026838;28;20033;-80
2023/04/11 08:21:40;;;;;;;8.93;2.13;;;11.80;99.90;;;;;;5005304;28;20508;-80
2023/04/11 08:24:05;;;;;;;9.00;2.25;;;11.90;99.90;;;;;;5023379;28;20033;-80
2023/04/11 08:26:31;;;;;;;9.00;1.73;;;11.90;99.90;;;;;;4998129;28;20037;-79
2023/04/11 08:28:57;;;;;;;9.18;3.25;;;12.00;99.90;;;;;;5002952;28;20543;-80
2023/04/11 08:31:22;;;;;;;6.57;1.83;;;12.10;99.90;;;;;;5017946;28;20033;-81
2023/04/11 08:33:48;;;;;;;11.48;2.50;;;12.20;99.90;;;;;;5017278;28;20045;-80
2023/04/11 08:36:13;;;;;;;9.43;3.42;;;12.30;99.90;;;;;;5028672;28;20035;-80
2023/04/11 08:38:39;;;;;;;5.75;1.42;;;12.50;99.90;;;;;;5030624;28;20474;-81
2023/04/11 08:41:05;;;;;;;12.27;2.20;;;12.60;99.90;;;;;;5001371;28;20057;-80
2023/04/11 08:43:37;;;;;;;10.90;1.73;;;12.60;99.90;;;;;;5031429;28;20508;-80
2023/04/11 08:46:03;;;;;;;5.95;2.70;;;12.60;99.90;;;;;;5016537;28;20564;-80
2023/04/11 08:48:29;;;;;;;7.97;2.28;;;12.70;99.90;;;;;;5001575;28;20033;-83
2023/04/11 08:50:55;;;;;;;10.77;2.92;;;12.50;99.90;;;;;;5013087;28;20029;-83
2023/04/11 08:53:21;;;;;;;12.23;2.53;;;12.80;99.90;;;;;;5020102;28;20463;-81
2023/04/11 08:55:47;;;;;;;8.73;2.13;;;12.90;99.90;;;;;;5002739;28;20041;-81
2023/04/11 08:58:12;;;;;;;8.07;2.15;;;12.90;99.90;;;;;;4990703;28;20033;-81
2023/04/11 09:00:38;;;;;;;6.35;2.60;;;12.90;99.90;;;;;;5015584;28;20042;-81
2023/04/11 09:03:08;;;;;;;7.97;1.92;;;13.00;99.90;;;;;;5028173;28;20040;-80
2023/04/11 09:05:40;;;;;;;12.05;2.00;;;13.30;99.90;;;;;;5000174;28;20107;-81
2023/04/11 09:08:07;;;;;;;7.13;1.85;;;13.40;99.90;;;;;;5013459;28;20394;-80
2023/04/11 09:10:33;;;;;;;10.05;2.55;;;13.30;99.90;;;;;;5012582;28;20044;-81
2023/04/11 09:12:59;;;;;;;4.82;1.60;;;13.20;99.90;;;;;;5012750;28;20025;-81
2023/04/11 09:15:28;;;;;;;8.07;1.63;;;13.30;99.90;;;;;;5024084;28;20388;-81
2023/04/11 09:17:54;;;;;;;8.40;1.83;;;13.40;99.90;;;;;;5021731;28;20112;-81
2023/04/11 09:20:29;;;;;;;8.18;1.52;;;13.50;99.90;;;;;;4993064;28;20470;-81
2023/04/11 09:22:55;;;;;;;6.97;1.70;;;13.50;99.90;;;;;;5000483;28;20025;-80
2023/04/11 09:25:21;;;;;;;4.90;1.30;;;13.60;99.90;;;;;;5014110;28;20074;-81
2023/04/11 09:27:47;;;;;;;3.42;1.13;;;13.70;99.90;;;;;;5006173;28;20091;-82
2023/04/11 09:30:23;;;;;;;1.70;1.10;;;13.70;99.90;;;;;;4995577;28;20057;-81
2023/04/11 09:32:49;;;;;;;5.90;1.25;;;13.80;99.90;;;;;;5037624;28;20030;-80
2023/04/11 09:35:17;;;;;;;11.52;2.05;;;13.70;99.90;;;;;;5021200;28;20053;-81
2023/04/11 09:37:49;;;;;;;4.00;1.27;;;13.60;99.90;;;;;;5003046;28;20501;-82
2023/04/11 09:40:17;;;;;;;2.35;0.90;;;13.80;99.90;;;;;;5005659;28;20088;-81
2023/04/11 09:42:43;;;;;;;8.02;1.35;;;13.60;99.90;;;;;;5014801;28;20038;-81
2023/04/11 09:45:18;;;;;;;3.15;0.90;;;13.80;99.90;;;;;;5010080;28;20025;-81
2023/04/11 09:47:48;;;;;;;6.13;1.45;;;13.90;99.90;;;;;;5028449;28;20033;-80
2023/04/11 09:50:14;;;;;;;7.68;1.38;;;14.00;99.90;;;;;;5006592;28;20030;-80
2023/04/11 09:52:41;;;;;;;5.13;1.42;;;14.10;99.90;;;;;;5015902;28;20116;-80
2023/04/11 09:55:09;;;;;;;3.80;1.30;;;14.10;99.90;;;;;;5006439;28;20612;-80
2023/04/11 09:57:35;;;;;;;6.15;1.73;;;14.10;99.90;;;;;;5019605;28;20032;-80
2023/04/11 10:00:28;;;;;;;7.13;0.90;;;14.00;99.90;;;;;;5015798;28;20031;-80
2023/04/11 10:02:54;;;;;;;9.75;1.55;;;14.00;99.90;;;;;;5018819;28;20037;-80
2023/04/11 10:05:27;;;;;;;7.97;1.60;;;13.90;99.90;;;;;;5002114;28;20100;-79
2023/04/11 10:08:02;;;;;;;6.63;1.65;;;14.00;99.90;;;;;;5011235;28;20058;-81
2023/04/11 10:10:27;;;;;;;7.43;1.70;;;14.20;99.90;;;;;;5025091;28;20037;-80
2023/04/11 10:12:53;;;;;;;5.10;1.48;;;14.50;99.90;;;;;;5024936;28;20036;-79
2023/04/11 10:15:18;;;;;;;7.50;2.03;;;14.40;99.90;;;;;;5005874;28;20034;-79
2023/04/11 10:18:10;;;;;;;8.23;1.92;;;14.10;99.90;;;;;;5008143;28;20072;-80
2023/04/11 10:20:45;;;;;;;7.93;2.17;;;14.40;99.90;;;;;;4999839;28;20036;-79
2023/04/11 10:23:12;;;;;;;7.65;2.30;;;14.80;99.10;;;;;;5034425;28;20117;-80
2023/04/11 10:25:59;;;;;;;4.03;1.30;;;14.70;99.80;;;;;;5005796;28;20053;-80
2023/04/11 10:28:37;;;;;;;3.20;1.15;;;14.90;99.90;;;;;;5018717;28;20421;-80
2023/04/11 10:31:12;;;;;;;5.65;1.50;;;15.30;97.50;;;;;;5010579;28;20029;-80
2023/04/11 10:33:39;;;;;;;6.20;2.05;;;15.20;95.40;;;;;;5020885;28;20030;-79
2023/04/11 10:36:11;;;;;;;9.57;1.77;;;15.10;97.50;;;;;;5006730;28;20030;-79
2023/04/11 10:38:42;;;;;;;10.52;1.60;;;15.40;97.40;;;;;;5002600;28;20034;-79
2023/04/11 10:41:41;;;;;;;4.40;1.55;;;15.50;98.60;;;;;;5019139;28;20118;-79
2023/04/11 10:44:14;;;;;;;3.65;1.05;;;15.90;97.80;;;;;;5020118;28;20026;-79
2023/04/11 10:46:53;;;;;;;5.03;1.55;;;16.50;96.70;;;;;;5008161;28;20045;-79
2023/04/11 10:49:37;;;;;;;4.05;1.60;;;16.80;95.80;;;;;;5013600;28;20044;-80
2023/04/11 10:52:22;;;;;;;4.68;1.50;;;16.80;95.70;;;;;;5019201;28;20029;-79
2023/04/11 10:54:51;;;;;;;9.10;1.38;;;16.90;92.30;;;;;;5013167;28;20021;-79
2023/04/11 10:57:17;;;;;;;2.45;1.23;;;16.90;92.20;;;;;;5002682;28;20564;-78
2023/04/11 10:59:43;;;;;;;10.65;2.22;;;16.80;93.80;;;;;;5015851;28;20038;-78
2023/04/11 11:02:08;;;;;;;6.25;2.38;;;16.90;92.40;;;;;;5018347;28;20125;-78
2023/04/11 11:04:37;;;;;;;2.33;1.25;;;16.90;92.40;;;;;;5020785;28;20037;-80
2023/04/11 11:07:04;;;;;;;4.47;1.58;;;16.70;91.10;;;;;;5018055;28;20029;-78
2023/04/11 11:09:30;;;;;;;10.10;2.35;;;16.80;91.20;;;;;;5015924;28;20034;-78
2023/04/11 11:12:12;;;;;;;4.50;1.63;;;16.80;91.10;;;;;;5013026;28;20121;-78
2023/04/11 11:14:42;;;;;;;3.42;1.77;;;16.80;91.00;;;;;;5017927;28;20037;-79
2023/04/11 11:17:07;;;;;;;7.53;2.85;;;16.80;90.70;;;;;;4993445;28;20060;-78
2023/04/11 11:19:34;;;;;;;3.92;1.42;;;16.80;91.20;;;;;;5017219;28;20513;-79
2023/04/11 11:22:02;;;;;;;8.15;1.52;;;16.60;92.00;;;;;;5013052;28;20033;-79
2023/04/11 11:24:28;;;;;;;4.60;1.75;;;16.30;93.10;;;;;;5020589;28;20176;-78
2023/04/11 11:26:54;;;;;;;7.25;1.95;;;16.70;91.60;;;;;;5016790;28;20116;-79
2023/04/11 11:29:49;;;;;;;4.70;1.90;;;16.60;92.60;;;;;;5001786;28;20041;-78
2023/04/11 11:32:27;;;;;;;4.28;1.25;;;16.30;93.00;;;;;;5000032;28;21323;-79
2023/04/11 11:34:52;;;;;;;7.43;1.42;;;16.70;93.20;;;;;;5007572;28;20101;-80
2023/04/11 11:37:18;;;;;;;4.80;1.90;;;16.60;91.20;;;;;;5031033;28;20038;-79
2023/04/11 11:39:44;;;;;;;5.57;1.55;;;16.70;91.20;;;;;;5003123;28;20033;-78
2023/04/11 11:42:10;;;;;;;4.50;1.45;;;16.60;92.10;;;;;;5020320;28;20171;-78
2023/04/11 11:44:36;;;;;;;3.05;1.52;;;16.70;90.60;;;;;;5020826;28;20033;-78
2023/04/11 11:47:08;;;;;;;5.82;2.03;;;16.60;90.00;;;;;;5021012;28;20033;-78
2023/04/11 11:49:43;;;;;;;5.43;1.85;;;16.30;92.40;;;;;;5001745;28;20038;-78
2023/04/11 11:52:10;;;;;;;5.37;1.43;;;16.30;92.20;;;;;;5012166;28;20488;-77
2023/04/11 11:54:44;;;;;;;5.50;2.38;;;16.30;91.00;;;;;;4999469;28;20033;-78
2023/04/11 11:57:09;;;;;;;4.47;1.40;;;16.20;92.40;;;;;;5007591;28;20398;-78
2023/04/11 11:59:35;;;;;;;6.25;1.65;;;16.10;90.70;;;;;;5017858;28;20041;-78
2023/04/11 12:02:02;;;;;;;5.85;1.70;;;16.00;89.40;;;;;;4999150;28;20037;-77
2023/04/11 12:04:29;;;;;;;3.33;1.20;;;16.00;90.40;;;;;;4998420;28;20046;-78
2023/04/11 12:06:55;;;;;;;6.38;1.52;;;16.00;91.30;;;;;;5001075;28;20485;-77
2023/04/11 12:09:20;;;;;;;5.55;1.92;;;16.00;87.00;;;;;;5035018;28;20026;-77
2023/04/11 12:11:46;;;;;;;3.35;1.40;;;16.00;92.10;;;;;;5017055;28;20172;-78
2023/04/11 12:14:21;;;;;;;4.82;1.73;;;16.00;92.00;;;;;;5000034;28;20466;-78
2023/04/11 12:16:46;;;;;;;1.90;1.10;;;16.20;89.80;;;;;;4998968;28;20081;-77
2023/04/11 12:19:12;;;;;;;6.35;1.50;;;16.50;89.80;;;;;;5022893;28;20084;-77
2023/04/11 12:21:37;;;;;;;4.22;1.60;;;16.60;88.60;;;;;;4999590;28;20038;-77
2023/04/11 12:24:03;;;;;;;2.60;0.90;;;16.60;86.90;;;;;;5005330;28;20038;-78
2023/04/11 12:26:29;;;;;;;3.50;1.27;;;16.50;83.80;;;;;;5027052;28;20560;-77
2023/04/11 12:28:55;;;;;;;3.75;1.40;;;16.30;87.70;;;;;;5006333;28;20109;-78
2023/04/11 12:31:20;;;;;;;7.47;1.55;;;16.20;86.20;;;;;;5024875;28;20513;-77
2023/04/11 12:33:46;;;;;;;5.38;0.80;;;16.20;87.90;;;;;;5030835;28;20573;-77
2023/04/11 12:36:11;;;;;;;5.75;1.38;;;16.20;82.80;;;;;;5022757;28;20480;-78
2023/04/11 12:38:37;;;;;;;6.18;1.30;;;16.00;87.00;;;;;;5001350;28;20112;-77
2023/04/11 12:41:03;;;;;;;2.00;0.88;;;16.10;86.20;;;;;;4988947;28;20050;-78
2023/04/11 12:43:28;;;;;;;3.13;0.77;;;16.20;86.10;;;;;;5014090;28;20132;-77
2023/04/11 12:45:54;;;;;;;7.97;1.48;;;16.40;83.30;;;;;;5016932;28;20085;-78
2023/04/11 12:48:20;;;;;;;3.90;0.80;;;16.60;80.70;;;;;;4999993;28;20026;-78